Terminal Aerodrome Forecast
Issued by NWS

Home | Current Version | Previous Version | Text Only | Print | Product List | Glossary Off
Versions: 1 2 3 4 5 6 7 8 9 10 11 12 13 14 15 16 17 18 19 20

031
FTUS43 KIWX 240541
TAFSBN
TAF
KSBN 240541Z 2406/2506 10012KT P6SM SCT020 OVC035 WS020/19035KT
      TEMPO 2406/2409 4SM SHRA OVC020
     FM240900 14010KT P6SM OVC015 WS020/20043KT
     FM241300 17011KT P6SM OVC008 WS020/21041KT
     FM241800 19013KT P6SM VCTS OVC008CB
     FM242200 21013KT 4SM -SHRA OVC010
      TEMPO 2422/2502 28018G35KT 2SM +TSRA OVC015CB
     FM250200 23010KT P6SM OVC015
     FM250500 24012G21KT P6SM BKN015=

USA.gov is the U.S. government's official web portal to all federal, state and local government web resources and services.